sensor_id;sensor_type;location;lat;lon;timestamp;pressure;altitude;pressure_sealevel;temperature;humidity
14273;BME280;7220;49.450;11.052;2023-06-19T00:03:33;97749.41;;;22.52;39.09
14273;BME280;7220;49.450;11.052;2023-06-19T00:07:36;97747.72;;;22.43;39.51
14273;BME280;7220;49.450;11.052;2023-06-19T00:11:36;97746.38;;;22.47;39.57
14273;BME280;7220;49.450;11.052;2023-06-19T00:15:37;97740.44;;;22.44;39.33
14273;BME280;7220;49.450;11.052;2023-06-19T00:19:37;97733.66;;;22.40;39.55
14273;BME280;7220;49.450;11.052;2023-06-19T00:23:37;97738.75;;;22.43;39.30
14273;BME280;7220;49.450;11.052;2023-06-19T00:27:38;97733.81;;;22.38;39.33
14273;BME280;7220;49.450;11.052;2023-06-19T00:31:38;97732.09;;;22.29;39.64
14273;BME280;7220;49.450;11.052;2023-06-19T00:35:38;97738.53;;;22.28;40.03
14273;BME280;7220;49.450;11.052;2023-06-19T00:39:39;97730.41;;;22.28;39.70
14273;BME280;7220;49.450;11.052;2023-06-19T00:43:40;97730.06;;;22.22;39.89
14273;BME280;7220;49.450;11.052;2023-06-19T00:47:41;97741.41;;;22.26;39.59
14273;BME280;7220;49.450;11.052;2023-06-19T00:51:41;97743.63;;;22.31;39.67
14273;BME280;7220;49.450;11.052;2023-06-19T00:55:42;97747.00;;;22.33;39.61
14273;BME280;7220;49.450;11.052;2023-06-19T00:59:43;97740.06;;;22.30;39.43
14273;BME280;7220;49.450;11.052;2023-06-19T01:03:43;97734.81;;;22.29;39.38
14273;BME280;7220;49.450;11.052;2023-06-19T01:12:16;97731.44;;;22.18;39.43
14273;BME280;7220;49.450;11.052;2023-06-19T01:16:17;97731.75;;;22.15;39.50
14273;BME280;7220;49.450;11.052;2023-06-19T01:20:18;97737.50;;;22.12;39.47
14273;BME280;7220;49.450;11.052;2023-06-19T01:24:18;97725.34;;;22.08;39.04
14273;BME280;7220;49.450;11.052;2023-06-19T01:28:19;97741.06;;;22.04;39.67
14273;BME280;7220;49.450;11.052;2023-06-19T01:32:25;97730.56;;;22.01;39.55
14273;BME280;7220;49.450;11.052;2023-06-19T01:36:28;97731.44;;;22.02;39.05
14273;BME280;7220;49.450;11.052;2023-06-19T01:40:30;97721.25;;;21.96;39.60
14273;BME280;7220;49.450;11.052;2023-06-19T01:44:32;97733.44;;;21.92;39.34
14273;BME280;7220;49.450;11.052;2023-06-19T01:48:35;97719.19;;;21.81;39.81
14273;BME280;7220;49.450;11.052;2023-06-19T01:52:36;97723.22;;;21.69;39.57
14273;BME280;7220;49.450;11.052;2023-06-19T01:56:37;97737.41;;;21.63;40.41
14273;BME280;7220;49.450;11.052;2023-06-19T02:00:37;97732.50;;;21.58;40.46
14273;BME280;7220;49.450;11.052;2023-06-19T02:04:38;97733.47;;;21.57;40.90
14273;BME280;7220;49.450;11.052;2023-06-19T02:08:38;97742.56;;;21.48;41.25
14273;BME280;7220;49.450;11.052;2023-06-19T02:12:38;97731.88;;;21.38;41.30
14273;BME280;7220;49.450;11.052;2023-06-19T02:16:39;97736.91;;;21.33;41.42
14273;BME280;7220;49.450;11.052;2023-06-19T02:20:40;97743.66;;;21.28;41.78
14273;BME280;7220;49.450;11.052;2023-06-19T02:24:40;97742.50;;;21.31;42.10
14273;BME280;7220;49.450;11.052;2023-06-19T02:28:41;97744.50;;;21.29;41.71
14273;BME280;7220;49.450;11.052;2023-06-19T02:32:41;97736.41;;;21.29;41.79
14273;BME280;7220;49.450;11.052;2023-06-19T02:36:41;97732.00;;;21.28;41.87
14273;BME280;7220;49.450;11.052;2023-06-19T02:40:42;97728.81;;;21.33;42.14
14273;BME280;7220;49.450;11.052;2023-06-19T02:44:42;97726.97;;;21.33;41.64
14273;BME280;7220;49.450;11.052;2023-06-19T02:48:43;97729.19;;;21.38;41.89
14273;BME280;7220;49.450;11.052;2023-06-19T02:52:43;97719.38;;;21.37;41.81
14273;BME280;7220;49.450;11.052;2023-06-19T02:56:44;97728.19;;;21.39;41.50
14273;BME280;7220;49.450;11.052;2023-06-19T03:00:44;97734.25;;;21.41;41.45
14273;BME280;7220;49.450;11.052;2023-06-19T03:04:44;97739.34;;;21.44;41.73
14273;BME280;7220;49.450;11.052;2023-06-19T03:08:45;97747.28;;;21.46;41.69
14273;BME280;7220;49.450;11.052;2023-06-19T03:12:46;97755.25;;;21.47;41.44
14273;BME280;7220;49.450;11.052;2023-06-19T03:16:46;97757.59;;;21.50;41.34
14273;BME280;7220;49.450;11.052;2023-06-19T03:20:47;97756.91;;;21.48;41.40
14273;BME280;7220;49.450;11.052;2023-06-19T03:24:47;97772.47;;;21.46;41.33
14273;BME280;7220;49.450;11.052;2023-06-19T03:28:48;97776.19;;;21.45;41.97
14273;BME280;7220;49.450;11.052;2023-06-19T03:32:48;97786.81;;;21.47;42.09
14273;BME280;7220;49.450;11.052;2023-06-19T03:36:48;97795.63;;;21.49;42.15
14273;BME280;7220;49.450;11.052;2023-06-19T03:40:48;97801.56;;;21.52;42.33
14273;BME280;7220;49.450;11.052;2023-06-19T03:44:49;97806.63;;;21.55;41.96
14273;BME280;7220;49.450;11.052;2023-06-19T03:48:49;97821.56;;;21.59;42.04
14273;BME280;7220;49.450;11.052;2023-06-19T03:52:49;97829.41;;;21.53;42.99
14273;BME280;7220;49.450;11.052;2023-06-19T03:56:50;97834.00;;;21.52;43.27
14273;BME280;7220;49.450;11.052;2023-06-19T04:00:51;97838.00;;;21.48;43.42
14273;BME280;7220;49.450;11.052;2023-06-19T04:04:51;97827.19;;;21.48;43.22
14273;BME280;7220;49.450;11.052;2023-06-19T04:08:51;97837.34;;;21.46;44.01
14273;BME280;7220;49.450;11.052;2023-06-19T04:12:52;97830.34;;;21.35;44.08
14273;BME280;7220;49.450;11.052;2023-06-19T04:16:55;97823.41;;;21.33;44.74
14273;BME280;7220;49.450;11.052;2023-06-19T04:20:55;97831.16;;;21.27;45.51
14273;BME280;7220;49.450;11.052;2023-06-19T04:24:55;97824.03;;;21.26;45.64
14273;BME280;7220;49.450;11.052;2023-06-19T04:28:56;97829.75;;;21.23;46.25
14273;BME280;7220;49.450;11.052;2023-06-19T04:32:59;97829.09;;;21.21;46.65
14273;BME280;7220;49.450;11.052;2023-06-19T04:36:59;97840.91;;;21.20;46.95
14273;BME280;7220;49.450;11.052;2023-06-19T04:41:00;97847.16;;;21.21;47.12
14273;BME280;7220;49.450;11.052;2023-06-19T04:45:00;97850.84;;;21.20;48.18
14273;BME280;7220;49.450;11.052;2023-06-19T04:49:00;97849.47;;;21.16;48.08
14273;BME280;7220;49.450;11.052;2023-06-19T04:53:04;97849.31;;;21.17;48.34
14273;BME280;7220;49.450;11.052;2023-06-19T04:57:04;97854.78;;;21.25;48.34
14273;BME280;7220;49.450;11.052;2023-06-19T05:01:05;97860.06;;;21.35;48.73
14273;BME280;7220;49.450;11.052;2023-06-19T05:05:06;97856.88;;;21.40;48.24
14273;BME280;7220;49.450;11.052;2023-06-19T05:09:06;97854.22;;;21.48;48.56
14273;BME280;7220;49.450;11.052;2023-06-19T05:13:06;97843.47;;;21.56;48.27
14273;BME280;7220;49.450;11.052;2023-06-19T05:17:07;97850.66;;;21.66;48.78
14273;BME280;7220;49.450;11.052;2023-06-19T05:21:09;97857.09;;;21.73;48.49
14273;BME280;7220;49.450;11.052;2023-06-19T05:25:09;97876.41;;;21.78;48.68
14273;BME280;7220;49.450;11.052;2023-06-19T05:29:10;97862.41;;;21.83;48.48
14273;BME280;7220;49.450;11.052;2023-06-19T05:33:11;97859.72;;;21.91;48.37
14273;BME280;7220;49.450;11.052;2023-06-19T05:37:16;97866.19;;;21.98;48.38
14273;BME280;7220;49.450;11.052;2023-06-19T05:41:16;97877.19;;;22.05;48.84
14273;BME280;7220;49.450;11.052;2023-06-19T05:45:17;97884.31;;;22.14;49.88
14273;BME280;7220;49.450;11.052;2023-06-19T05:49:17;97885.72;;;22.27;50.15
14273;BME280;7220;49.450;11.052;2023-06-19T05:53:17;97886.31;;;22.47;49.76
14273;BME280;7220;49.450;11.052;2023-06-19T05:57:18;97901.56;;;22.64;49.52
14273;BME280;7220;49.450;11.052;2023-06-19T06:01:20;97904.66;;;22.78;49.46
14273;BME280;7220;49.450;11.052;2023-06-19T06:05:21;97914.47;;;22.79;49.69
14273;BME280;7220;49.450;11.052;2023-06-19T06:09:21;97921.41;;;22.81;49.97
14273;BME280;7220;49.450;11.052;2023-06-19T06:13:22;97924.78;;;22.83;50.43
14273;BME280;7220;49.450;11.052;2023-06-19T06:17:22;97923.09;;;22.82;51.08
14273;BME280;7220;49.450;11.052;2023-06-19T06:21:23;97922.59;;;22.79;51.75
14273;BME280;7220;49.450;11.052;2023-06-19T06:25:23;97925.44;;;22.77;52.91
14273;BME280;7220;49.450;11.052;2023-06-19T06:29:24;97925.28;;;22.71;52.93
14273;BME280;7220;49.450;11.052;2023-06-19T06:33:24;97941.03;;;22.75;53.66
14273;BME280;7220;49.450;11.052;2023-06-19T06:37:25;97942.72;;;22.84;53.67
14273;BME280;7220;49.450;11.052;2023-06-19T06:41:25;97949.84;;;22.85;54.22
14273;BME280;7220;49.450;11.052;2023-06-19T06:45:25;97944.94;;;22.89;54.24
14273;BME280;7220;49.450;11.052;2023-06-19T06:49:26;97962.06;;;22.90;54.39
14273;BME280;7220;49.450;11.052;2023-06-19T06:53:27;97957.84;;;22.95;54.57
14273;BME280;7220;49.450;11.052;2023-06-19T06:57:31;97957.00;;;23.11;54.63
14273;BME280;7220;49.450;11.052;2023-06-19T07:01:32;97958.72;;;23.21;54.71
14273;BME280;7220;49.450;11.052;2023-06-19T07:05:32;97954.78;;;23.15;55.52
14273;BME280;7220;49.450;11.052;2023-06-19T07:09:32;97950.91;;;23.26;55.83
14273;BME280;7220;49.450;11.052;2023-06-19T07:13:33;97949.72;;;23.37;55.25
14273;BME280;7220;49.450;11.052;2023-06-19T07:17:33;97960.06;;;23.41;55.71
14273;BME280;7220;49.450;11.052;2023-06-19T07:21:34;97968.38;;;23.56;55.73
14273;BME280;7220;49.450;11.052;2023-06-19T07:25:34;97976.97;;;23.76;55.28
14273;BME280;7220;49.450;11.052;2023-06-19T07:29:34;97973.56;;;23.83;55.24
14273;BME280;7220;49.450;11.052;2023-06-19T07:33:35;97973.75;;;23.89;54.81
14273;BME280;7220;49.450;11.052;2023-06-19T07:37:35;97971.53;;;24.01;54.87
14273;BME280;7220;49.450;11.052;2023-06-19T07:41:36;97981.00;;;24.05;54.24
14273;BME280;7220;49.450;11.052;2023-06-19T07:45:36;97988.31;;;24.13;54.03
14273;BME280;7220;49.450;11.052;2023-06-19T07:49:37;97987.94;;;24.08;54.14
14273;BME280;7220;49.450;11.052;2023-06-19T07:53:37;97980.34;;;24.12;53.81
14273;BME280;7220;49.450;11.052;2023-06-19T07:57:39;97983.22;;;24.10;54.14
14273;BME280;7220;49.450;11.052;2023-06-19T08:01:40;97992.53;;;24.16;54.46
14273;BME280;7220;49.450;11.052;2023-06-19T08:05:40;97988.28;;;24.21;54.09
14273;BME280;7220;49.450;11.052;2023-06-19T08:09:40;97993.47;;;24.39;54.36
14273;BME280;7220;49.450;11.052;2023-06-19T08:13:41;97999.34;;;24.51;53.43
14273;BME280;7220;49.450;11.052;2023-06-19T08:17:41;98008.47;;;24.58;53.78
14273;BME280;7220;49.450;11.052;2023-06-19T08:21:42;98002.03;;;24.68;53.05
14273;BME280;7220;49.450;11.052;2023-06-19T08:25:42;98007.63;;;24.66;53.37
14273;BME280;7220;49.450;11.052;2023-06-19T08:29:43;98009.84;;;24.71;53.62
14273;BME280;7220;49.450;11.052;2023-06-19T08:33:43;98007.13;;;24.71;53.90
14273;BME280;7220;49.450;11.052;2023-06-19T08:37:44;98005.03;;;24.73;53.58
14273;BME280;7220;49.450;11.052;2023-06-19T08:41:44;98000.78;;;24.79;53.06
14273;BME280;7220;49.450;11.052;2023-06-19T08:46:38;98016.34;;;24.85;53.06
14273;BME280;7220;49.450;11.052;2023-06-19T08:50:15;98009.94;;;24.78;53.21
14273;BME280;7220;49.450;11.052;2023-06-19T08:54:15;98018.78;;;24.80;53.52
14273;BME280;7220;49.450;11.052;2023-06-19T08:58:21;98008.84;;;24.95;52.76
14273;BME280;7220;49.450;11.052;2023-06-19T09:02:22;98012.19;;;25.06;52.74
14273;BME280;7220;49.450;11.052;2023-06-19T09:06:23;98016.63;;;25.22;52.75
14273;BME280;7220;49.450;11.052;2023-06-19T09:10:24;98007.22;;;25.32;52.47
14273;BME280;7220;49.450;11.052;2023-06-19T09:14:38;97999.72;;;25.34;52.36
14273;BME280;7220;49.450;11.052;2023-06-19T09:18:48;98000.94;;;25.32;52.65
14273;BME280;7220;49.450;11.052;2023-06-19T09:22:48;98005.91;;;25.28;52.86
14273;BME280;7220;49.450;11.052;2023-06-19T09:26:50;97984.38;;;25.42;52.31
14273;BME280;7220;49.450;11.052;2023-06-19T09:30:59;97990.38;;;25.60;52.37
14273;BME280;7220;49.450;11.052;2023-06-19T09:35:00;97980.97;;;25.63;51.80
14273;BME280;7220;49.450;11.052;2023-06-19T09:39:04;97979.13;;;25.63;51.51
14273;BME280;7220;49.450;11.052;2023-06-19T09:43:06;97988.44;;;25.84;51.05
14273;BME280;7220;49.450;11.052;2023-06-19T09:47:30;97991.97;;;26.08;50.79
14273;BME280;7220;49.450;11.052;2023-06-19T09:51:33;97986.31;;;26.09;50.64
14273;BME280;7220;49.450;11.052;2023-06-19T09:55:33;97976.47;;;26.23;49.94
14273;BME280;7220;49.450;11.052;2023-06-19T09:59:37;97972.44;;;26.19;49.78
14273;BME280;7220;49.450;11.052;2023-06-19T10:03:39;97973.28;;;26.20;50.09
14273;BME280;7220;49.450;11.052;2023-06-19T10:07:42;97979.09;;;26.32;49.56
14273;BME280;7220;49.450;11.052;2023-06-19T10:15:46;97980.94;;;26.46;48.91
14273;BME280;7220;49.450;11.052;2023-06-19T10:19:51;97973.19;;;26.43;49.24
14273;BME280;7220;49.450;11.052;2023-06-19T10:23:57;97979.25;;;26.45;49.05
14273;BME280;7220;49.450;11.052;2023-06-19T10:27:58;97973.44;;;26.48;48.89
14273;BME280;7220;49.450;11.052;2023-06-19T10:31:58;97968.16;;;26.61;48.70
14273;BME280;7220;49.450;11.052;2023-06-19T10:36:13;97964.84;;;26.66;48.04
14273;BME280;7220;49.450;11.052;2023-06-19T10:40:14;97960.44;;;26.80;47.98
14273;BME280;7220;49.450;11.052;2023-06-19T10:44:15;97958.75;;;27.01;47.92
14273;BME280;7220;49.450;11.052;2023-06-19T10:48:24;97947.00;;;27.22;46.73
14273;BME280;7220;49.450;11.052;2023-06-19T10:52:28;97953.19;;;27.31;46.59
14273;BME280;7220;49.450;11.052;2023-06-19T10:56:28;97937.72;;;27.38;46.69
14273;BME280;7220;49.450;11.052;2023-06-19T11:00:30;97934.41;;;27.21;46.93
14273;BME280;7220;49.450;11.052;2023-06-19T11:04:31;97931.09;;;27.26;46.60
14273;BME280;7220;49.450;11.052;2023-06-19T11:08:37;97934.22;;;27.44;46.80
14273;BME280;7220;49.450;11.052;2023-06-19T11:12:37;97935.22;;;27.65;46.70
14273;BME280;7220;49.450;11.052;2023-06-19T11:16:42;97933.25;;;28.64;44.27
14273;BME280;7220;49.450;11.052;2023-06-19T11:20:47;97938.66;;;29.19;42.57
14273;BME280;7220;49.450;11.052;2023-06-19T11:24:49;97936.56;;;29.15;42.13
14273;BME280;7220;49.450;11.052;2023-06-19T11:28:50;97933.22;;;29.66;41.25
14273;BME280;7220;49.450;11.052;2023-06-19T11:32:50;97920.13;;;30.61;39.21
14273;BME280;7220;49.450;11.052;2023-06-19T11:36:52;97935.06;;;30.72;38.87
14273;BME280;7220;49.450;11.052;2023-06-19T11:40:54;97919.84;;;31.14;37.86
14273;BME280;7220;49.450;11.052;2023-06-19T11:44:57;97924.22;;;31.47;36.81
14273;BME280;7220;49.450;11.052;2023-06-19T11:49:13;97906.56;;;31.87;36.47
14273;BME280;7220;49.450;11.052;2023-06-19T11:53:14;97903.66;;;32.38;35.42
14273;BME280;7220;49.450;11.052;2023-06-19T11:57:14;97910.81;;;31.83;35.94
14273;BME280;7220;49.450;11.052;2023-06-19T12:01:15;97898.97;;;32.27;35.23
14273;BME280;7220;49.450;11.052;2023-06-19T12:05:15;97885.88;;;31.59;35.89
14273;BME280;7220;49.450;11.052;2023-06-19T12:09:15;97890.69;;;32.08;35.39
14273;BME280;7220;49.450;11.052;2023-06-19T12:13:16;97875.16;;;32.51;34.44
14273;BME280;7220;49.450;11.052;2023-06-19T12:17:16;97876.25;;;32.80;33.54
14273;BME280;7220;49.450;11.052;2023-06-19T12:21:16;97889.38;;;32.10;35.13
14273;BME280;7220;49.450;11.052;2023-06-19T12:25:17;97878.34;;;31.29;35.75
14273;BME280;7220;49.450;11.052;2023-06-19T12:29:17;97884.59;;;30.79;36.46
14273;BME280;7220;49.450;11.052;2023-06-19T12:33:20;97881.81;;;30.47;37.34
14273;BME280;7220;49.450;11.052;2023-06-19T12:37:21;97860.94;;;30.40;37.60
14273;BME280;7220;49.450;11.052;2023-06-19T12:41:21;97865.13;;;30.49;37.49
14273;BME280;7220;49.450;11.052;2023-06-19T12:45:22;97877.97;;;30.94;37.12
14273;BME280;7220;49.450;11.052;2023-06-19T12:49:22;97874.97;;;30.63;37.57
14273;BME280;7220;49.450;11.052;2023-06-19T12:53:22;97872.16;;;30.31;38.35
14273;BME280;7220;49.450;11.052;2023-06-19T12:57:26;97866.50;;;30.26;38.21
14273;BME280;7220;49.450;11.052;2023-06-19T13:01:27;97864.88;;;30.64;37.18
14273;BME280;7220;49.450;11.052;2023-06-19T13:05:27;97863.38;;;31.25;36.17
14273;BME280;7220;49.450;11.052;2023-06-19T13:09:27;97867.22;;;31.43;36.11
14273;BME280;7220;49.450;11.052;2023-06-19T13:13:27;97864.09;;;31.65;35.06
14273;BME280;7220;49.450;11.052;2023-06-19T13:17:28;97855.19;;;32.06;34.15
14273;BME280;7220;49.450;11.052;2023-06-19T13:21:28;97853.50;;;33.15;32.50
14273;BME280;7220;49.450;11.052;2023-06-19T13:25:29;97846.47;;;33.31;32.98
14273;BME280;7220;49.450;11.052;2023-06-19T13:29:29;97844.34;;;34.22;31.10
14273;BME280;7220;49.450;11.052;2023-06-19T13:33:29;97832.47;;;34.91;30.22
14273;BME280;7220;49.450;11.052;2023-06-19T13:37:30;97839.50;;;35.16;29.99
14273;BME280;7220;49.450;11.052;2023-06-19T13:41:30;97847.66;;;33.95;32.27
14273;BME280;7220;49.450;11.052;2023-06-19T13:45:34;97853.03;;;34.02;32.66
14273;BME280;7220;49.450;11.052;2023-06-19T13:49:34;97827.34;;;35.34;30.86
14273;BME280;7220;49.450;11.052;2023-06-19T13:53:35;97838.25;;;36.19;29.79
14273;BME280;7220;49.450;11.052;2023-06-19T13:57:35;97828.31;;;36.45;28.78
14273;BME280;7220;49.450;11.052;2023-06-19T14:01:37;97824.88;;;36.11;28.60
14273;BME280;7220;49.450;11.052;2023-06-19T14:05:37;97836.22;;;35.36;29.43
14273;BME280;7220;49.450;11.052;2023-06-19T14:09:39;97828.00;;;34.32;30.49
14273;BME280;7220;49.450;11.052;2023-06-19T14:13:39;97828.25;;;33.66;31.08
14273;BME280;7220;49.450;11.052;2023-06-19T14:17:39;97838.47;;;32.87;32.79
14273;BME280;7220;49.450;11.052;2023-06-19T14:21:41;97838.09;;;31.86;34.40
14273;BME280;7220;49.450;11.052;2023-06-19T14:25:41;97835.81;;;31.13;35.90
14273;BME280;7220;49.450;11.052;2023-06-19T14:29:42;97828.22;;;30.51;37.19
14273;BME280;7220;49.450;11.052;2023-06-19T14:33:42;97840.41;;;30.17;38.63
14273;BME280;7220;49.450;11.052;2023-06-19T14:37:42;97819.25;;;29.65;40.13
14273;BME280;7220;49.450;11.052;2023-06-19T14:41:43;97836.13;;;29.49;41.14
14273;BME280;7220;49.450;11.052;2023-06-19T14:45:43;97844.16;;;29.10;43.38
14273;BME280;7220;49.450;11.052;2023-06-19T14:49:43;97844.13;;;28.70;46.97
14273;BME280;7220;49.450;11.052;2023-06-19T14:53:44;97859.09;;;28.25;47.54
14273;BME280;7220;49.450;11.052;2023-06-19T14:57:44;97871.56;;;27.93;49.55
14273;BME280;7220;49.450;11.052;2023-06-19T15:01:44;97872.06;;;26.96;56.27
14273;BME280;7220;49.450;11.052;2023-06-19T15:05:45;97867.84;;;26.13;60.08
14273;BME280;7220;49.450;11.052;2023-06-19T15:09:45;97876.47;;;25.19;65.79
14273;BME280;7220;49.450;11.052;2023-06-19T15:13:45;97874.78;;;24.17;73.54
14273;BME280;7220;49.450;11.052;2023-06-19T15:17:46;97883.50;;;23.87;77.14
14273;BME280;7220;49.450;11.052;2023-06-19T15:21:46;97884.88;;;23.91;76.78
14273;BME280;7220;49.450;11.052;2023-06-19T15:25:46;97896.91;;;23.89;82.73
14273;BME280;7220;49.450;11.052;2023-06-19T15:29:49;97881.75;;;23.63;87.79
14273;BME280;7220;49.450;11.052;2023-06-19T15:33:49;97893.09;;;23.58;90.95
14273;BME280;7220;49.450;11.052;2023-06-19T15:37:50;97885.84;;;23.26;98.68
14273;BME280;7220;49.450;11.052;2023-06-19T15:41:50;97894.31;;;22.81;100.00
14273;BME280;7220;49.450;11.052;2023-06-19T15:45:50;97885.81;;;22.76;100.00
14273;BME280;7220;49.450;11.052;2023-06-19T15:49:51;97874.66;;;22.88;100.00
14273;BME280;7220;49.450;11.052;2023-06-19T15:53:51;97866.88;;;23.18;100.00
14273;BME280;7220;49.450;11.052;2023-06-19T15:57:51;97846.50;;;23.55;100.00
14273;BME280;7220;49.450;11.052;2023-06-19T16:01:52;97827.91;;;23.83;99.58
14273;BME280;7220;49.450;11.052;2023-06-19T16:05:52;97814.56;;;24.13;97.47
14273;BME280;7220;49.450;11.052;2023-06-19T16:09:53;97816.44;;;24.67;93.08
14273;BME280;7220;49.450;11.052;2023-06-19T16:13:54;97808.41;;;25.27;86.24
14273;BME280;7220;49.450;11.052;2023-06-19T16:17:55;97800.44;;;25.86;81.43
14273;BME280;7220;49.450;11.052;2023-06-19T16:21:55;97798.66;;;26.29;79.43
14273;BME280;7220;49.450;11.052;2023-06-19T16:25:56;97785.69;;;26.53;76.28
14273;BME280;7220;49.450;11.052;2023-06-19T16:29:56;97794.84;;;26.89;73.53
14273;BME280;7220;49.450;11.052;2023-06-19T16:33:56;97792.28;;;27.09;71.29
14273;BME280;7220;49.450;11.052;2023-06-19T16:37:56;97797.72;;;27.37;68.02
14273;BME280;7220;49.450;11.052;2023-06-19T16:41:57;97803.84;;;27.81;65.13
14273;BME280;7220;49.450;11.052;2023-06-19T16:45:57;97808.47;;;28.29;63.99
14273;BME280;7220;49.450;11.052;2023-06-19T16:49:57;97800.75;;;28.53;61.50
14273;BME280;7220;49.450;11.052;2023-06-19T16:53:58;97792.78;;;28.52;59.62
14273;BME280;7220;49.450;11.052;2023-06-19T16:57:59;97797.78;;;28.41;60.53
14273;BME280;7220;49.450;11.052;2023-06-19T17:01:59;97791.06;;;28.44;60.32
14273;BME280;7220;49.450;11.052;2023-06-19T17:06:00;97798.66;;;28.48;60.77
14273;BME280;7220;49.450;11.052;2023-06-19T17:10:03;97798.63;;;28.35;60.66
14273;BME280;7220;49.450;11.052;2023-06-19T17:14:03;97802.31;;;28.07;62.00
14273;BME280;7220;49.450;11.052;2023-06-19T17:18:04;97804.59;;;28.03;60.88
14273;BME280;7220;49.450;11.052;2023-06-19T17:22:06;97814.03;;;28.01;59.22
14273;BME280;7220;49.450;11.052;2023-06-19T17:26:06;97811.66;;;27.84;59.14
14273;BME280;7220;49.450;11.052;2023-06-19T17:30:07;97819.69;;;27.58;60.16
14273;BME280;7220;49.450;11.052;2023-06-19T17:34:09;97804.69;;;27.40;59.52
14273;BME280;7220;49.450;11.052;2023-06-19T17:38:09;97803.53;;;27.28;60.29
14273;BME280;7220;49.450;11.052;2023-06-19T17:42:09;97796.16;;;27.21;60.80
14273;BME280;7220;49.450;11.052;2023-06-19T17:46:11;97802.00;;;27.18;61.15
14273;BME280;7220;49.450;11.052;2023-06-19T17:50:11;97807.13;;;27.35;59.65
14273;BME280;7220;49.450;11.052;2023-06-19T17:54:12;97816.50;;;27.26;61.19
14273;BME280;7220;49.450;11.052;2023-06-19T17:58:12;97819.94;;;27.06;61.72
14273;BME280;7220;49.450;11.052;2023-06-19T18:02:13;97821.38;;;27.02;62.23
14273;BME280;7220;49.450;11.052;2023-06-19T18:06:13;97823.69;;;26.76;64.89
14273;BME280;7220;49.450;11.052;2023-06-19T18:10:14;97819.81;;;26.71;65.35
14273;BME280;7220;49.450;11.052;2023-06-19T18:14:14;97822.47;;;26.64;64.08
14273;BME280;7220;49.450;11.052;2023-06-19T18:18:14;97823.09;;;26.59;63.36
14273;BME280;7220;49.450;11.052;2023-06-19T18:22:15;97820.41;;;26.44;64.30
14273;BME280;7220;49.450;11.052;2023-06-19T18:26:15;97814.31;;;26.42;64.54
14273;BME280;7220;49.450;11.052;2023-06-19T18:30:15;97806.56;;;26.24;65.06
14273;BME280;7220;49.450;11.052;2023-06-19T18:34:16;97814.03;;;26.01;68.72
14273;BME280;7220;49.450;11.052;2023-06-19T18:38:17;97819.47;;;25.86;72.23
14273;BME280;7220;49.450;11.052;2023-06-19T18:42:17;97814.44;;;25.67;74.79
14273;BME280;7220;49.450;11.052;2023-06-19T18:46:18;97814.25;;;25.54;76.35
14273;BME280;7220;49.450;11.052;2023-06-19T18:50:19;97813.88;;;25.42;77.88
14273;BME280;7220;49.450;11.052;2023-06-19T18:54:20;97822.19;;;25.26;80.18
14273;BME280;7220;49.450;11.052;2023-06-19T18:58:20;97829.97;;;25.14;81.08
14273;BME280;7220;49.450;11.052;2023-06-19T19:02:21;97827.78;;;25.09;81.50
14273;BME280;7220;49.450;11.052;2023-06-19T19:06:22;97830.28;;;24.96;82.31
14273;BME280;7220;49.450;11.052;2023-06-19T19:10:22;97832.22;;;24.87;83.44
14273;BME280;7220;49.450;11.052;2023-06-19T19:14:23;97843.84;;;24.81;83.93
14273;BME280;7220;49.450;11.052;2023-06-19T19:18:23;97836.78;;;24.71;84.74
14273;BME280;7220;49.450;11.052;2023-06-19T19:22:23;97849.16;;;24.66;84.97
14273;BME280;7220;49.450;11.052;2023-06-19T19:26:25;97840.72;;;24.61;84.17
14273;BME280;7220;49.450;11.052;2023-06-19T19:30:25;97833.47;;;24.53;84.88
14273;BME280;7220;49.450;11.052;2023-06-19T19:34:26;97835.16;;;24.54;85.26
14273;BME280;7220;49.450;11.052;2023-06-19T19:38:26;97828.41;;;24.50;85.60
14273;BME280;7220;49.450;11.052;2023-06-19T19:42:26;97840.31;;;24.49;86.76
14273;BME280;7220;49.450;11.052;2023-06-19T19:46:27;97842.00;;;24.50;86.84
14273;BME280;7220;49.450;11.052;2023-06-19T19:50:27;97850.44;;;24.55;85.27
14273;BME280;7220;49.450;11.052;2023-06-19T19:54:27;97845.19;;;24.53;84.02
14273;BME280;7220;49.450;11.052;2023-06-19T19:58:28;97849.97;;;24.51;83.70
14273;BME280;7220;49.450;11.052;2023-06-19T20:02:29;97857.28;;;24.51;84.07
14273;BME280;7220;49.450;11.052;2023-06-19T20:06:29;97858.09;;;24.51;83.56
14273;BME280;7220;49.450;11.052;2023-06-19T20:10:31;97856.41;;;24.50;83.52
14273;BME280;7220;49.450;11.052;2023-06-19T20:14:31;97859.66;;;24.46;83.17
14273;BME280;7220;49.450;11.052;2023-06-19T20:18:31;97859.56;;;24.39;83.06
14273;BME280;7220;49.450;11.052;2023-06-19T20:22:32;97862.81;;;24.34;82.70
14273;BME280;7220;49.450;11.052;2023-06-19T20:26:32;97865.19;;;24.29;81.88
14273;BME280;7220;49.450;11.052;2023-06-19T20:30:32;97871.16;;;24.24;81.68
14273;BME280;7220;49.450;11.052;2023-06-19T20:34:33;97880.34;;;24.23;81.06
14273;BME280;7220;49.450;11.052;2023-06-19T20:38:33;97881.72;;;24.19;79.82
14273;BME280;7220;49.450;11.052;2023-06-19T20:42:34;97888.53;;;24.15;80.36
14273;BME280;7220;49.450;11.052;2023-06-19T20:46:34;97882.63;;;24.12;79.86
14273;BME280;7220;49.450;11.052;2023-06-19T20:50:35;97885.97;;;24.14;79.00
14273;BME280;7220;49.450;11.052;2023-06-19T20:54:35;97890.38;;;24.15;78.95
14273;BME280;7220;49.450;11.052;2023-06-19T20:58:35;97882.78;;;24.10;78.76
14273;BME280;7220;49.450;11.052;2023-06-19T21:02:37;97880.44;;;24.07;78.69
14273;BME280;7220;49.450;11.052;2023-06-19T21:06:37;97886.19;;;24.04;78.71
14273;BME280;7220;49.450;11.052;2023-06-19T21:10:37;97877.03;;;24.05;78.88
14273;BME280;7220;49.450;11.052;2023-06-19T21:14:40;97884.31;;;24.04;79.52
14273;BME280;7220;49.450;11.052;2023-06-19T21:18:40;97884.69;;;24.01;79.60
14273;BME280;7220;49.450;11.052;2023-06-19T21:22:40;97881.28;;;23.99;79.72
14273;BME280;7220;49.450;11.052;2023-06-19T21:26:41;97885.72;;;23.92;79.88